Time;durP1;ratioP1;P1;durP2;ratioP2;P2;SDS_P1;SDS_P2;PMS_P1;PMS_P2;Temp;Humidity;BMP_temperature;BMP_pressure;BME280_temperature;BME280_humidity;BME280_pressure;Samples;Min_cycle;Max_cycle;Signal;HPM_P1;HPM_P2
2021/12/02 00:02:01;;;;;;;0.90;0.90;;;;;;;8.12;70.46;93941.78;4995129;28;20223;-84
2021/12/02 00:04:30;;;;;;;0.90;0.90;;;;;;;8.18;70.65;93947.91;4994669;28;20242;-84
2021/12/02 00:06:56;;;;;;;1.00;0.90;;;;;;;8.15;70.99;93946.53;4995346;28;20199;-84
2021/12/02 00:09:23;;;;;;;0.83;0.80;;;;;;;8.27;70.68;93962.84;4995977;28;20258;-84
2021/12/02 00:11:49;;;;;;;1.00;1.00;;;;;;;8.30;69.95;93941.16;4995700;28;20650;-84
2021/12/02 00:14:23;;;;;;;0.77;0.77;;;;;;;8.26;70.30;93948.47;4995919;28;20230;-84
2021/12/02 00:17:03;;;;;;;0.90;0.90;;;;;;;8.32;70.19;93950.25;4995531;28;20282;-82
2021/12/02 00:22:14;;;;;;;0.83;0.83;;;;;;;8.19;69.52;93936.66;4995530;28;20274;-84
2021/12/02 00:24:46;;;;;;;1.00;0.80;;;;;;;8.18;69.54;93932.53;4994794;28;20215;-85
2021/12/02 00:27:14;;;;;;;0.90;0.90;;;;;;;8.18;69.11;93937.66;4995666;28;20207;-84
2021/12/02 00:29:46;;;;;;;0.80;0.80;;;;;;;8.11;69.54;93940.22;4994505;28;20215;-84
2021/12/02 00:32:12;;;;;;;0.90;0.90;;;;;;;8.10;69.34;93938.63;4995671;28;20204;-84
2021/12/02 00:34:45;;;;;;;0.90;0.90;;;;;;;8.06;69.25;93947.75;4993767;28;20220;-84
2021/12/02 00:37:12;;;;;;;0.90;0.90;;;;;;;8.08;69.22;93947.53;4994411;28;20687;-84
2021/12/02 00:39:39;;;;;;;0.80;0.80;;;;;;;8.04;69.13;93931.00;4994549;28;20207;-82
2021/12/02 00:42:08;;;;;;;0.80;0.80;;;;;;;7.97;69.44;93947.16;4994624;28;20210;-84
2021/12/02 00:44:37;;;;;;;0.80;0.80;;;;;;;8.05;69.08;93948.72;4994012;28;20737;-84
2021/12/02 00:47:05;;;;;;;1.93;0.83;;;;;;;8.04;69.06;93943.81;4995260;28;20577;-82
2021/12/02 00:49:31;;;;;;;0.90;0.90;;;;;;;7.97;68.85;93952.28;4995142;28;20199;-85
2021/12/02 00:52:01;;;;;;;0.90;0.70;;;;;;;8.05;68.76;93958.19;4995273;28;20207;-84
2021/12/02 00:54:28;;;;;;;0.80;0.80;;;;;;;8.04;68.97;93957.41;4993883;28;20711;-84
2021/12/02 00:56:55;;;;;;;0.93;0.90;;;;;;;8.08;68.76;93957.81;4996028;28;20230;-84
2021/12/02 00:59:23;;;;;;;0.80;0.80;;;;;;;8.00;69.41;93952.88;4996054;28;20200;-84
2021/12/02 01:01:51;;;;;;;0.87;0.87;;;;;;;8.02;69.46;93951.69;4996310;28;20584;-84
2021/12/02 01:04:22;;;;;;;1.23;0.97;;;;;;;7.95;69.60;93959.38;4994903;28;20227;-84
2021/12/02 01:06:49;;;;;;;1.07;0.93;;;;;;;7.96;69.41;93955.84;4994392;28;20227;-84
2021/12/02 01:09:15;;;;;;;0.70;0.70;;;;;;;7.90;69.21;93960.97;4994173;28;20211;-84
2021/12/02 01:11:42;;;;;;;0.93;0.93;;;;;;;7.84;69.20;93967.69;4994925;28;20210;-84
2021/12/02 01:14:10;;;;;;;1.30;0.90;;;;;;;7.79;69.19;93967.50;4994331;28;20223;-84
2021/12/02 01:16:38;;;;;;;0.63;0.63;;;;;;;7.75;69.13;93961.19;4994447;28;20234;-85
2021/12/02 01:19:05;;;;;;;1.40;0.80;;;;;;;7.81;69.00;93957.03;4994863;28;20803;-84
2021/12/02 01:21:37;;;;;;;0.80;0.80;;;;;;;7.81;69.01;93960.41;4994412;28;20207;-84
2021/12/02 01:24:06;;;;;;;0.80;0.80;;;;;;;7.84;69.00;93956.66;4998663;28;20231;-83
2021/12/02 01:26:34;;;;;;;0.70;0.70;;;;;;;7.81;68.86;93959.59;4998092;28;20238;-84
2021/12/02 01:29:02;;;;;;;1.00;0.90;;;;;;;7.72;68.92;93953.88;4998186;28;20211;-82
2021/12/02 01:31:31;;;;;;;0.77;0.77;;;;;;;7.68;68.86;93955.28;4997778;28;20213;-82
2021/12/02 01:34:01;;;;;;;0.80;0.80;;;;;;;7.68;68.66;93952.72;4998059;28;20310;-83
2021/12/02 01:36:35;;;;;;;0.80;0.80;;;;;;;7.64;68.74;93943.88;4997950;28;20706;-84
2021/12/02 01:39:03;;;;;;;0.80;0.80;;;;;;;7.62;68.57;93941.50;4997730;28;20222;-84
2021/12/02 01:41:35;;;;;;;0.80;0.80;;;;;;;7.65;68.38;93942.88;4998445;28;20200;-84
2021/12/02 01:44:02;;;;;;;0.77;0.77;;;;;;;7.62;68.64;93938.16;4992602;28;20227;-83
2021/12/02 01:46:28;;;;;;;0.90;0.70;;;;;;;7.55;68.69;93927.13;4997569;28;20245;-84
2021/12/02 01:49:02;;;;;;;0.80;0.80;;;;;;;7.49;68.62;93941.53;4998085;28;20733;-83
2021/12/02 01:51:29;;;;;;;0.77;0.77;;;;;;;7.52;68.59;93930.06;4998726;28;20639;-84
2021/12/02 01:54:09;;;;;;;0.80;0.80;;;;;;;7.59;68.07;93934.22;4998937;28;20234;-85
2021/12/02 01:56:43;;;;;;;1.40;0.70;;;;;;;7.60;68.17;93935.78;4997083;28;20223;-81
2021/12/02 01:59:13;;;;;;;0.90;0.80;;;;;;;7.66;67.78;93938.56;4997954;28;20196;-84
2021/12/02 02:01:42;;;;;;;0.80;0.80;;;;;;;7.60;68.20;93937.56;4998217;28;20203;-83
2021/12/02 02:04:09;;;;;;;1.27;0.90;;;;;;;7.72;68.26;93941.09;4997754;28;20622;-84
2021/12/02 02:06:39;;;;;;;0.80;0.80;;;;;;;7.66;68.54;93936.00;4997220;28;20229;-84
2021/12/02 02:09:08;;;;;;;0.70;0.70;;;;;;;7.64;68.45;93936.19;4998218;28;20203;-84
2021/12/02 02:11:35;;;;;;;1.13;0.80;;;;;;;7.67;68.22;93943.47;4997441;28;20195;-82
2021/12/02 02:14:02;;;;;;;1.10;0.97;;;;;;;7.70;68.27;93937.94;4997248;28;20219;-83
2021/12/02 02:16:29;;;;;;;0.90;0.80;;;;;;;7.70;68.27;93929.50;4996992;28;20231;-84
2021/12/02 02:18:56;;;;;;;0.90;0.90;;;;;;;7.66;68.83;93936.00;4998003;28;20202;-84
2021/12/02 02:21:24;;;;;;;0.80;0.73;;;;;;;7.70;68.74;93945.63;4997387;28;20552;-84
2021/12/02 02:23:55;;;;;;;2.33;0.80;;;;;;;7.66;68.72;93934.22;4997284;28;20242;-84
2021/12/02 02:26:25;;;;;;;0.80;0.80;;;;;;;7.78;68.54;93936.94;4997260;28;20249;-84
2021/12/02 02:28:51;;;;;;;0.90;0.90;;;;;;;7.78;68.64;93939.50;4997991;28;20212;-84
2021/12/02 02:31:18;;;;;;;0.80;0.80;;;;;;;7.80;68.89;93937.53;4997653;28;20221;-84
2021/12/02 02:33:48;;;;;;;1.10;1.00;;;;;;;7.76;68.97;93941.47;4996905;28;20203;-83
2021/12/02 02:36:15;;;;;;;0.80;0.80;;;;;;;7.84;68.65;93938.72;4996884;28;20679;-84
2021/12/02 02:38:45;;;;;;;1.10;1.00;;;;;;;7.80;68.58;93943.44;4997439;28;20610;-85
2021/12/02 02:41:18;;;;;;;0.97;0.97;;;;;;;7.79;68.83;93938.53;4997215;28;20199;-84
2021/12/02 02:43:48;;;;;;;1.77;1.10;;;;;;;7.75;69.32;93937.34;4996761;28;20227;-84
2021/12/02 02:46:21;;;;;;;1.13;1.03;;;;;;;7.77;69.82;93941.28;4996298;28;20653;-84
2021/12/02 02:48:47;;;;;;;1.10;1.00;;;;;;;7.73;70.09;93936.75;4996567;28;20199;-84
2021/12/02 02:51:14;;;;;;;1.20;1.10;;;;;;;7.67;70.68;93942.69;4996830;28;20238;-83
2021/12/02 02:53:40;;;;;;;1.30;1.20;;;;;;;7.64;71.50;93941.31;4997079;28;20207;-84
2021/12/02 02:56:11;;;;;;;1.20;1.10;;;;;;;7.68;72.17;93945.06;4996219;28;20243;-83
2021/12/02 02:58:51;;;;;;;1.00;1.00;;;;;;;7.62;73.82;93940.72;4996547;28;20203;-84
2021/12/02 03:01:31;;;;;;;1.67;1.13;;;;;;;7.56;75.82;93944.06;4977193;28;20216;-83
2021/12/02 03:04:04;;;;;;;1.10;1.00;;;;;;;7.63;75.81;93944.84;4995301;28;20231;-83
2021/12/02 03:06:36;;;;;;;1.23;1.07;;;;;;;7.62;76.33;93940.72;4996063;28;20251;-82
2021/12/02 03:09:06;;;;;;;1.10;1.00;;;;;;;7.61;75.97;93944.25;4994233;28;20195;-83
2021/12/02 03:11:44;;;;;;;2.20;1.30;;;;;;;7.60;76.07;93942.69;4997868;28;20207;-84
2021/12/02 03:14:14;;;;;;;1.10;1.10;;;;;;;7.63;76.60;93949.97;4997082;28;20250;-84
2021/12/02 03:16:46;;;;;;;1.70;1.20;;;;;;;7.64;76.66;93966.91;4996162;28;20255;-84
2021/12/02 03:19:15;;;;;;;1.03;1.00;;;;;;;7.61;77.36;93977.56;4996172;28;20207;-84
2021/12/02 03:21:41;;;;;;;0.87;0.80;;;;;;;7.46;76.36;93982.88;4999157;28;20199;-85
2021/12/02 03:24:08;;;;;;;1.43;0.60;;;;;;;7.36;77.13;93979.91;5000056;28;20326;-82
2021/12/02 03:26:36;;;;;;;0.60;0.60;;;;;;;7.30;77.69;93985.03;4999621;28;20242;-82
2021/12/02 03:29:05;;;;;;;0.70;0.70;;;;;;;7.06;79.45;93987.16;4998065;28;20687;-82
2021/12/02 03:31:31;;;;;;;0.50;0.50;;;;;;;7.05;79.23;93988.13;4999109;28;20203;-82
2021/12/02 03:33:58;;;;;;;0.60;0.50;;;;;;;6.99;80.31;93988.13;4999084;28;20212;-82
2021/12/02 03:36:25;;;;;;;0.70;0.67;;;;;;;6.94;79.42;93999.72;4996853;28;20247;-84
2021/12/02 03:38:51;;;;;;;1.17;0.67;;;;;;;6.77;80.69;94000.25;4999093;28;20196;-84
2021/12/02 03:41:18;;;;;;;0.53;0.50;;;;;;;6.74;79.28;93995.50;4998376;28;20203;-83
2021/12/02 03:43:49;;;;;;;0.70;0.70;;;;;;;6.66;80.86;94000.81;4998450;28;20220;-83
2021/12/02 03:46:17;;;;;;;0.73;0.60;;;;;;;6.64;81.88;93995.88;4997794;28;20231;-84
2021/12/02 03:48:44;;;;;;;0.77;0.77;;;;;;;6.63;81.70;93996.06;4998773;28;20196;-84
2021/12/02 03:51:12;;;;;;;0.87;0.57;;;;;;;6.67;80.85;93997.28;4999129;28;20211;-84
2021/12/02 03:53:39;;;;;;;0.60;0.60;;;;;;;6.69;80.36;93987.66;4998748;28;20214;-84
2021/12/02 03:56:07;;;;;;;1.43;0.70;;;;;;;6.62;82.50;93995.28;4999229;28;20238;-84
2021/12/02 03:58:34;;;;;;;0.60;0.50;;;;;;;6.58;81.05;93988.97;4998868;28;20255;-81
2021/12/02 04:01:02;;;;;;;1.13;0.60;;;;;;;6.64;81.88;93989.97;4998459;28;20203;-82
2021/12/02 04:03:28;;;;;;;0.60;0.60;;;;;;;6.73;80.61;93986.28;4999011;28;20231;-83
2021/12/02 04:05:55;;;;;;;0.60;0.60;;;;;;;6.70;81.34;93981.56;4997334;28;20238;-82
2021/12/02 04:08:28;;;;;;;0.50;0.50;;;;;;;6.72;80.74;93982.16;4997554;28;20250;-84
2021/12/02 04:11:00;;;;;;;0.70;0.60;;;;;;;6.64;82.24;93980.53;4998355;28;20211;-85
2021/12/02 04:13:31;;;;;;;0.87;0.60;;;;;;;6.65;81.54;93987.25;4978691;28;20200;-83
2021/12/02 04:16:02;;;;;;;1.33;0.50;;;;;;;6.79;81.77;93981.19;4979196;28;20228;-84
2021/12/02 04:18:30;;;;;;;1.27;0.80;;;;;;;6.80;83.08;93974.28;4997896;28;20199;-82
2021/12/02 04:20:57;;;;;;;1.13;0.60;;;;;;;6.75;83.22;93981.75;4998136;28;20226;-84
2021/12/02 04:23:23;;;;;;;1.10;0.70;;;;;;;6.76;82.86;93980.75;4997485;28;20560;-85
2021/12/02 04:25:49;;;;;;;1.23;0.60;;;;;;;6.83;81.98;93984.94;4996824;28;20247;-83
2021/12/02 04:28:16;;;;;;;2.17;0.63;;;;;;;6.88;81.87;93981.81;4997240;28;20403;-84
2021/12/02 04:30:42;;;;;;;1.17;0.60;;;;;;;6.92;80.99;93972.78;4997899;28;20199;-84
2021/12/02 04:33:09;;;;;;;0.50;0.50;;;;;;;6.91;81.50;93983.97;4996647;28;20199;-83
2021/12/02 04:35:37;;;;;;;0.60;0.60;;;;;;;6.93;81.49;93967.44;4996699;28;20238;-84
2021/12/02 04:38:03;;;;;;;0.60;0.60;;;;;;;6.97;81.54;93969.59;4997590;28;20207;-81
2021/12/02 04:40:30;;;;;;;0.63;0.57;;;;;;;7.04;80.93;93981.44;4997884;28;20203;-82
2021/12/02 04:42:56;;;;;;;0.70;0.70;;;;;;;7.01;81.86;93971.59;4996733;28;20587;-84
2021/12/02 04:45:22;;;;;;;0.83;0.70;;;;;;;7.02;81.53;93973.16;4995477;28;20734;-82
2021/12/02 04:47:49;;;;;;;0.70;0.60;;;;;;;7.00;82.12;93977.69;4996444;28;20199;-83
2021/12/02 04:50:15;;;;;;;0.80;0.60;;;;;;;7.02;81.86;93977.50;4997221;28;20394;-83
2021/12/02 04:52:43;;;;;;;0.73;0.73;;;;;;;7.05;81.70;93977.13;4996250;28;20203;-83
2021/12/02 04:55:10;;;;;;;3.30;0.77;;;;;;;7.12;81.27;93985.59;4995914;28;20239;-82
2021/12/02 04:57:37;;;;;;;1.03;0.80;;;;;;;7.16;81.07;93972.19;4995416;28;20223;-82
2021/12/02 05:00:05;;;;;;;0.80;0.80;;;;;;;7.20;81.34;93986.19;4995039;28;20203;-84
2021/12/02 05:02:32;;;;;;;1.17;0.87;;;;;;;7.18;82.01;93990.72;4996165;28;20203;-84
2021/12/02 05:04:58;;;;;;;0.70;0.70;;;;;;;7.20;81.02;93981.06;4994746;28;20243;-82
2021/12/02 05:07:24;;;;;;;2.53;0.77;;;;;;;7.23;81.06;93987.56;4996039;28;20289;-83
2021/12/02 05:09:52;;;;;;;0.90;0.70;;;;;;;7.26;81.13;93975.19;4996266;28;20203;-83
2021/12/02 05:12:20;;;;;;;0.80;0.80;;;;;;;7.25;80.74;93978.72;4996173;28;20195;-84
2021/12/02 05:14:47;;;;;;;0.80;0.80;;;;;;;7.29;80.86;93979.13;4995850;28;20265;-84
2021/12/02 05:17:13;;;;;;;1.00;0.90;;;;;;;7.28;80.76;93973.22;4997089;28;20207;-82
2021/12/02 05:19:40;;;;;;;1.00;0.90;;;;;;;7.30;80.70;93982.47;4997260;28;20200;-83
2021/12/02 05:22:08;;;;;;;1.33;0.90;;;;;;;7.26;81.22;93982.84;4996312;28;20693;-84
2021/12/02 05:24:35;;;;;;;1.00;0.90;;;;;;;7.24;81.57;93984.81;4994866;28;20231;-84
2021/12/02 05:27:03;;;;;;;1.10;1.00;;;;;;;7.19;81.60;93978.69;5000996;28;20204;-82
2021/12/02 05:29:29;;;;;;;1.10;0.93;;;;;;;7.20;81.37;93982.84;4995766;28;20208;-83
2021/12/02 05:31:56;;;;;;;1.23;1.00;;;;;;;7.18;81.48;93980.47;4996690;28;20206;-84
2021/12/02 05:34:22;;;;;;;1.97;1.20;;;;;;;7.06;82.38;93984.59;4995463;28;20211;-84
2021/12/02 05:36:49;;;;;;;1.40;1.20;;;;;;;7.01;82.31;93989.50;4995337;28;20590;-83
2021/12/02 05:39:15;;;;;;;1.23;1.20;;;;;;;6.92;83.14;93983.78;4995183;28;20227;-84
2021/12/02 05:41:42;;;;;;;1.30;1.20;;;;;;;6.86;84.13;93978.66;4989898;28;20210;-84
2021/12/02 05:44:10;;;;;;;1.40;1.30;;;;;;;6.81;84.02;93983.53;4989172;28;20699;-82
2021/12/02 05:46:37;;;;;;;1.30;1.20;;;;;;;6.76;84.20;93984.13;4989023;28;20580;-82
2021/12/02 05:49:03;;;;;;;2.77;1.40;;;;;;;6.75;83.74;93987.66;4991791;28;20211;-84
2021/12/02 05:51:33;;;;;;;1.23;1.13;;;;;;;6.76;84.01;93980.75;4992738;28;20816;-85
2021/12/02 05:54:00;;;;;;;2.60;1.30;;;;;;;6.69;84.05;93988.44;4993858;28;20219;-84
2021/12/02 05:56:26;;;;;;;2.80;1.30;;;;;;;6.68;84.83;93981.75;4993512;28;20237;-82
2021/12/02 05:58:52;;;;;;;9.57;7.17;;;;;;;6.74;84.58;93969.94;4993310;28;20594;-81
2021/12/02 06:01:20;;;;;;;2.60;1.70;;;;;;;6.74;84.47;93975.84;4997559;28;20203;-83
2021/12/02 06:03:47;;;;;;;1.57;1.43;;;;;;;6.71;83.23;93978.81;4992779;28;20215;-82
2021/12/02 06:06:15;;;;;;;1.20;1.10;;;;;;;6.61;83.70;93975.81;4993083;28;20239;-83
2021/12/02 06:08:41;;;;;;;1.83;1.00;;;;;;;6.66;83.90;93973.47;4993061;28;20212;-84
2021/12/02 06:11:07;;;;;;;1.07;1.07;;;;;;;6.64;84.50;93972.09;4997325;28;20203;-84
2021/12/02 06:13:34;;;;;;;1.43;1.33;;;;;;;6.64;83.47;93974.66;4997859;28;20218;-84
2021/12/02 06:16:00;;;;;;;1.20;1.10;;;;;;;6.60;83.18;93979.34;4988882;28;20234;-82
2021/12/02 06:18:28;;;;;;;1.30;1.20;;;;;;;6.53;82.52;93973.44;4995916;28;20211;-84
2021/12/02 06:20:55;;;;;;;1.30;1.13;;;;;;;6.49;82.13;93980.69;4995656;28;20215;-84
2021/12/02 06:23:22;;;;;;;1.00;1.00;;;;;;;6.53;81.83;93971.66;4993973;28;20246;-82
2021/12/02 06:25:48;;;;;;;1.97;1.03;;;;;;;6.59;81.44;93972.66;4992778;28;20227;-82
2021/12/02 06:28:16;;;;;;;2.20;1.20;;;;;;;6.57;81.08;93972.84;4993274;28;20215;-81
2021/12/02 06:30:42;;;;;;;2.13;1.13;;;;;;;6.62;80.45;93974.84;4993218;28;20306;-85
2021/12/02 06:33:09;;;;;;;1.83;1.40;;;;;;;6.75;79.99;93971.53;4994565;28;20202;-85
2021/12/02 06:35:37;;;;;;;3.17;2.30;;;;;;;6.73;79.37;93979.41;4993270;28;20231;-81
2021/12/02 06:38:04;;;;;;;1.43;1.33;;;;;;;6.74;79.51;93983.50;4993476;28;20214;-83
2021/12/02 06:40:31;;;;;;;1.20;1.07;;;;;;;6.72;78.56;93982.94;4993851;28;20686;-82
2021/12/02 06:42:58;;;;;;;1.30;1.20;;;;;;;6.76;78.84;93989.22;4995196;28;20203;-82
2021/12/02 06:45:24;;;;;;;1.10;0.93;;;;;;;6.75;78.18;93997.88;4992714;28;20246;-85
2021/12/02 06:47:53;;;;;;;1.10;1.00;;;;;;;6.69;77.58;93995.31;4992719;28;20199;-81
2021/12/02 06:50:21;;;;;;;1.23;1.07;;;;;;;6.76;77.03;93998.66;4993267;28;20211;-82
2021/12/02 06:52:50;;;;;;;1.07;1.00;;;;;;;6.81;76.84;94009.13;4992664;28;20203;-84
2021/12/02 06:55:18;;;;;;;1.63;1.00;;;;;;;6.78;76.20;94012.06;4992609;28;20235;-82
2021/12/02 06:57:45;;;;;;;1.90;1.30;;;;;;;6.87;75.73;94008.38;4993035;28;20204;-83
2021/12/02 07:00:15;;;;;;;1.97;1.30;;;;;;;6.80;75.37;94021.13;4993029;28;20203;-83
2021/12/02 07:02:42;;;;;;;1.30;1.10;;;;;;;6.79;76.09;94016.97;4992718;28;20196;-84
2021/12/02 07:05:11;;;;;;;1.37;1.10;;;;;;;6.91;75.70;94019.78;4991557;28;20239;-83
2021/12/02 07:07:38;;;;;;;1.27;0.90;;;;;;;6.94;75.20;94020.19;4992391;28;20214;-84
2021/12/02 07:10:09;;;;;;;1.70;1.10;;;;;;;6.96;74.54;94021.75;4994019;28;20207;-84
2021/12/02 07:12:39;;;;;;;1.67;1.13;;;;;;;6.93;73.64;94026.28;4994363;28;20218;-82
2021/12/02 07:15:10;;;;;;;2.37;0.90;;;;;;;6.88;73.22;94020.97;4993348;28;20840;-82
2021/12/02 07:17:36;;;;;;;1.07;0.97;;;;;;;6.80;73.09;94020.34;4994314;28;20199;-82
2021/12/02 07:20:04;;;;;;;1.03;0.90;;;;;;;6.81;72.96;94020.16;4992092;28;20195;-82
2021/12/02 07:22:31;;;;;;;1.80;1.10;;;;;;;6.85;72.98;94020.56;4993681;28;20841;-83
2021/12/02 07:24:58;;;;;;;4.20;1.00;;;;;;;6.83;73.33;94014.84;4989755;28;20243;-82
2021/12/02 07:27:26;;;;;;;1.60;1.20;;;;;;;6.86;72.97;94017.81;4992744;28;20199;-81
2021/12/02 07:29:52;;;;;;;1.40;1.00;;;;;;;6.94;72.51;94022.72;4992450;28;20216;-84
2021/12/02 07:32:18;;;;;;;2.03;1.10;;;;;;;6.99;72.38;94022.16;4992345;28;20203;-85
2021/12/02 07:34:46;;;;;;;2.10;1.50;;;;;;;6.90;72.01;94024.13;4990438;28;20247;-84
2021/12/02 07:37:15;;;;;;;2.03;1.20;;;;;;;6.84;72.13;94034.31;4992073;28;20208;-84
2021/12/02 07:39:50;;;;;;;1.67;1.27;;;;;;;6.77;71.55;94034.28;4991308;28;20583;-84
2021/12/02 07:42:18;;;;;;;1.80;1.10;;;;;;;6.80;70.91;94035.69;4991466;28;20207;-82
2021/12/02 07:44:45;;;;;;;2.13;1.10;;;;;;;6.85;71.35;94033.34;4988118;28;20687;-81
2021/12/02 07:47:13;;;;;;;2.13;1.00;;;;;;;6.88;70.84;94032.97;4993386;28;20211;-83
2021/12/02 07:49:40;;;;;;;10.67;8.27;;;;;;;6.82;70.73;94038.84;4993763;28;20200;-83
2021/12/02 07:52:09;;;;;;;1.97;1.37;;;;;;;6.66;70.35;94028.94;4992924;28;20234;-83
2021/12/02 07:54:39;;;;;;;1.60;1.10;;;;;;;6.54;70.91;94026.16;4991682;28;20219;-84
2021/12/02 07:57:05;;;;;;;1.43;1.17;;;;;;;6.52;71.85;94028.91;4994446;28;20199;-84
2021/12/02 07:59:32;;;;;;;1.23;1.00;;;;;;;6.50;71.71;94033.41;4995060;28;20199;-85
2021/12/02 08:02:01;;;;;;;2.47;1.27;;;;;;;6.62;72.28;94032.84;4995145;28;20207;-82
2021/12/02 08:04:28;;;;;;;2.00;0.93;;;;;;;6.71;71.84;94034.28;4992937;28;20235;-83
2021/12/02 08:06:55;;;;;;;1.13;1.03;;;;;;;6.77;71.43;94030.94;4993435;28;20218;-83
2021/12/02 08:09:22;;;;;;;2.13;1.10;;;;;;;6.85;70.96;94031.56;4992893;28;20203;-84
2021/12/02 08:11:49;;;;;;;1.10;1.00;;;;;;;6.78;70.89;94024.84;4992266;28;20211;-81
2021/12/02 08:14:17;;;;;;;4.37;1.23;;;;;;;6.88;71.57;94033.75;4992812;28;20230;-80
2021/12/02 08:16:46;;;;;;;2.10;1.20;;;;;;;7.01;71.05;94025.31;4994124;28;20617;-80
2021/12/02 08:19:14;;;;;;;1.30;0.90;;;;;;;7.32;69.57;94018.88;4994876;28;20266;-79
2021/12/02 08:21:40;;;;;;;3.70;1.20;;;;;;;7.60;68.85;94033.09;4992298;28;20195;-83
2021/12/02 08:24:06;;;;;;;0.93;0.93;;;;;;;7.78;67.24;94027.41;4992777;28;20222;-83
2021/12/02 08:26:33;;;;;;;2.50;1.10;;;;;;;8.12;65.89;94023.81;4992075;28;20610;-81
2021/12/02 08:29:00;;;;;;;1.83;1.40;;;;;;;8.31;65.51;94024.75;4987380;28;20204;-80
2021/12/02 08:31:26;;;;;;;1.37;0.90;;;;;;;8.43;64.50;94028.34;4992634;28;20226;-83
2021/12/02 08:33:54;;;;;;;0.93;0.93;;;;;;;8.54;64.47;94026.91;4991863;28;20273;-82
2021/12/02 08:36:24;;;;;;;1.77;1.10;;;;;;;8.52;63.48;94027.13;4990834;28;20235;-82
2021/12/02 08:38:51;;;;;;;1.27;1.00;;;;;;;8.87;63.81;94016.53;4993052;28;20191;-84
2021/12/02 08:41:19;;;;;;;1.87;1.10;;;;;;;9.09;63.18;94017.81;4991684;28;20228;-84
2021/12/02 08:43:47;;;;;;;1.60;0.90;;;;;;;9.03;61.91;94021.22;4992287;28;20685;-81
2021/12/02 08:46:13;;;;;;;0.97;0.97;;;;;;;8.78;62.38;94018.53;4990247;28;20290;-82
2021/12/02 08:48:40;;;;;;;2.77;2.33;;;;;;;8.65;62.92;94016.03;4992926;28;20195;-80
2021/12/02 08:51:07;;;;;;;1.57;1.43;;;;;;;8.72;62.01;94021.91;4992511;28;20694;-82
2021/12/02 08:53:34;;;;;;;1.70;1.10;;;;;;;8.47;62.62;94011.53;4994877;28;20215;-83
2021/12/02 08:56:01;;;;;;;2.93;1.00;;;;;;;8.12;63.15;94010.22;4989128;28;20242;-82
2021/12/02 08:58:27;;;;;;;1.40;0.93;;;;;;;8.05;63.43;94010.25;4992107;28;20199;-83
2021/12/02 09:00:54;;;;;;;1.77;1.10;;;;;;;8.02;62.78;94014.97;4993063;28;20211;-83
2021/12/02 09:03:20;;;;;;;1.10;1.00;;;;;;;8.16;63.21;94007.06;4991944;28;20230;-84
2021/12/02 09:05:48;;;;;;;1.80;1.10;;;;;;;8.09;62.88;94011.38;4991927;28;20223;-84
2021/12/02 09:08:16;;;;;;;3.07;1.10;;;;;;;7.94;63.20;94005.69;4992919;28;20208;-83
2021/12/02 09:10:44;;;;;;;1.97;1.00;;;;;;;7.86;63.65;94013.59;4992711;28;20204;-84
2021/12/02 09:13:13;;;;;;;1.60;1.00;;;;;;;7.90;63.89;94014.75;4992523;28;20199;-84
2021/12/02 09:15:40;;;;;;;2.50;1.13;;;;;;;8.03;63.56;94012.22;4991494;28;20231;-83
2021/12/02 09:18:06;;;;;;;2.00;1.20;;;;;;;8.17;63.46;94018.09;4991826;28;20204;-84
2021/12/02 09:20:33;;;;;;;1.60;1.13;;;;;;;8.48;61.61;94017.44;4992019;28;20741;-85
2021/12/02 09:22:59;;;;;;;1.27;1.03;;;;;;;8.76;60.36;94015.41;4991776;28;20671;-83
2021/12/02 09:25:27;;;;;;;1.00;0.90;;;;;;;9.07;59.30;94008.72;4991486;28;20236;-84
2021/12/02 09:27:55;;;;;;;0.90;0.80;;;;;;;9.25;58.34;94011.38;4992101;28;21010;-84
2021/12/02 09:30:25;;;;;;;3.50;1.10;;;;;;;9.31;58.50;94011.34;4992823;28;20286;-84
2021/12/02 09:32:51;;;;;;;2.73;1.10;;;;;;;9.42;57.52;94012.50;4991704;28;20222;-84
2021/12/02 09:35:20;;;;;;;3.57;1.10;;;;;;;9.57;58.39;94009.63;4992128;28;20235;-84
2021/12/02 09:37:47;;;;;;;2.00;0.90;;;;;;;9.28;57.42;94018.69;4990984;28;20199;-83
2021/12/02 09:40:15;;;;;;;1.93;1.00;;;;;;;8.93;58.01;94015.72;4992645;28;20376;-84
2021/12/02 09:42:43;;;;;;;2.57;0.97;;;;;;;8.61;59.17;94015.66;4992349;28;20291;-83
2021/12/02 09:45:11;;;;;;;1.70;0.93;;;;;;;8.65;59.72;94018.59;4992373;28;20242;-83
2021/12/02 09:47:41;;;;;;;1.40;1.10;;;;;;;8.39;59.30;94011.78;4993196;28;20200;-84
2021/12/02 09:50:13;;;;;;;1.07;0.90;;;;;;;8.13;60.76;93999.75;4996021;28;20225;-84
2021/12/02 09:52:41;;;;;;;1.43;1.20;;;;;;;8.00;61.09;94004.91;4995352;28;20200;-83
2021/12/02 09:55:16;;;;;;;1.70;1.20;;;;;;;7.96;61.72;93996.03;4992108;28;20289;-81
2021/12/02 09:57:47;;;;;;;1.47;0.90;;;;;;;7.85;61.50;93999.22;4993440;28;20282;-83
2021/12/02 10:00:18;;;;;;;3.97;1.30;;;;;;;7.83;61.90;94001.97;4995139;28;20675;-83
2021/12/02 10:02:52;;;;;;;3.67;1.20;;;;;;;7.76;62.11;94010.63;4994016;28;20282;-83
2021/12/02 10:05:28;;;;;;;1.50;0.87;;;;;;;7.91;62.33;93998.41;4992870;28;20261;-80
2021/12/02 10:08:00;;;;;;;3.17;1.17;;;;;;;7.86;62.41;93995.66;4993806;28;20210;-82
2021/12/02 10:10:31;;;;;;;1.93;1.33;;;;;;;7.92;63.13;93995.66;4994800;28;20619;-83
2021/12/02 10:13:10;;;;;;;2.60;1.10;;;;;;;7.88;63.32;93994.50;4992167;28;20238;-82
2021/12/02 10:15:40;;;;;;;1.60;1.10;;;;;;;7.86;62.94;93990.56;4992287;28;20318;-82
2021/12/02 10:18:11;;;;;;;1.53;0.90;;;;;;;7.81;62.81;93977.53;4992860;28;20207;-83
2021/12/02 10:20:40;;;;;;;1.73;1.00;;;;;;;7.91;62.56;93983.81;4993535;28;20199;-83
2021/12/02 10:23:14;;;;;;;2.53;1.10;;;;;;;7.94;62.62;93983.44;4995052;28;20643;-83
2021/12/02 10:25:46;;;;;;;2.10;1.20;;;;;;;7.97;62.84;93979.69;4988153;28;20310;-83
2021/12/02 10:28:14;;;;;;;2.80;1.20;;;;;;;8.05;62.63;93983.81;4986851;28;20212;-84
2021/12/02 10:30:44;;;;;;;12.47;9.33;;;;;;;8.03;62.72;93975.53;4992213;28;20200;-84
2021/12/02 10:33:12;;;;;;;4.30;1.90;;;;;;;7.97;62.99;93970.22;4996454;28;20195;-84
2021/12/02 10:35:42;;;;;;;1.53;1.30;;;;;;;7.98;62.99;93974.34;4993006;28;20242;-84
2021/12/02 10:38:38;;;;;;;3.93;1.30;;;;;;;7.95;62.88;93971.41;4994611;28;20199;-84
2021/12/02 10:41:08;;;;;;;8.20;2.03;;;;;;;7.97;63.26;93975.34;4995325;28;20200;-83
2021/12/02 10:43:35;;;;;;;4.47;1.40;;;;;;;7.95;63.40;93977.31;4995224;28;20199;-81
2021/12/02 10:46:18;;;;;;;6.43;2.17;;;;;;;7.81;62.68;93970.66;4994791;28;20235;-84
2021/12/02 10:48:47;;;;;;;6.37;1.63;;;;;;;7.84;62.89;93977.16;4995190;28;20199;-83
2021/12/02 10:51:34;;;;;;;2.73;1.10;;;;;;;7.78;62.80;93967.69;4996207;28;20212;-82
2021/12/02 10:54:01;;;;;;;2.77;1.50;;;;;;;7.76;62.42;93964.53;4995916;28;20261;-83
2021/12/02 10:56:35;;;;;;;4.03;1.20;;;;;;;7.73;62.12;93949.56;4993249;28;20702;-83
2021/12/02 10:59:27;;;;;;;8.30;1.80;;;;;;;7.77;62.65;93955.88;4995188;28;20258;-83
2021/12/02 11:01:56;;;;;;;4.13;1.23;;;;;;;7.86;62.48;93947.00;4995364;28;20234;-81
2021/12/02 11:04:23;;;;;;;11.37;5.40;;;;;;;7.97;62.28;93949.72;4995136;28;20345;-83
2021/12/02 11:06:50;;;;;;;3.67;1.30;;;;;;;7.96;61.93;93952.47;4993668;28;20223;-83
2021/12/02 11:09:28;;;;;;;2.40;1.63;;;;;;;7.93;62.70;93945.97;4996650;28;20294;-83
2021/12/02 11:12:09;;;;;;;1.73;1.13;;;;;;;7.99;62.46;93944.41;4997043;28;20199;-83
2021/12/02 11:14:38;;;;;;;2.00;1.03;;;;;;;7.84;62.07;93943.84;4995859;28;20693;-83
2021/12/02 11:17:10;;;;;;;1.77;1.30;;;;;;;7.79;62.25;93936.75;4995894;28;20196;-81
2021/12/02 11:19:37;;;;;;;1.80;1.20;;;;;;;7.89;62.58;93937.13;4977370;28;20200;-80
2021/12/02 11:22:05;;;;;;;2.43;1.10;;;;;;;7.90;62.10;93931.00;4995089;28;20203;-80
2021/12/02 11:24:32;;;;;;;2.00;1.40;;;;;;;7.89;62.32;93941.44;5008445;28;20222;-81
2021/12/02 11:27:09;;;;;;;2.53;1.30;;;;;;;8.03;62.46;93939.66;5016455;28;20303;-81
2021/12/02 11:29:56;;;;;;;2.97;1.20;;;;;;;8.01;62.01;93934.75;5008170;28;20199;-84
2021/12/02 11:32:30;;;;;;;2.07;1.10;;;;;;;7.94;62.08;93933.97;4997430;28;20195;-83
2021/12/02 11:35:03;;;;;;;1.43;1.10;;;;;;;7.93;62.25;93937.50;4998683;28;20235;-83
2021/12/02 11:37:30;;;;;;;2.50;1.10;;;;;;;7.98;62.20;93927.44;5013476;28;20582;-82
2021/12/02 11:39:58;;;;;;;1.10;1.00;;;;;;;8.01;61.56;93918.56;4996806;28;20204;-83
2021/12/02 11:42:25;;;;;;;1.23;0.80;;;;;;;8.04;61.69;93920.75;4996239;28;20282;-83
2021/12/02 11:44:51;;;;;;;1.87;0.90;;;;;;;8.04;61.03;93918.19;4995431;28;20238;-82
2021/12/02 11:47:18;;;;;;;1.20;1.10;;;;;;;8.07;61.26;93913.44;5001323;28;20247;-83
2021/12/02 11:49:45;;;;;;;1.90;0.93;;;;;;;8.09;61.16;93910.66;4997187;28;20208;-83
2021/12/02 11:52:13;;;;;;;1.97;1.00;;;;;;;8.07;61.10;93910.88;4997041;28;20203;-82